Time;durP1;ratioP1;P1;durP2;ratioP2;P2;SDS_P1;SDS_P2;PMS_P1;PMS_P2;Temp;Humidity;BMP_temperature;BMP_pressure;BME280_temperature;BME280_humidity;BME280_pressure;Samples;Min_cycle;Max_cycle;Signal;HPM_P1;HPM_P2
2023/03/24 00:01:06;;;;;;;15.93;5.53;;;;;;;11.80;100.00;99669.19;5073350;28;20072;-53
2023/03/24 00:03:35;;;;;;;15.77;5.28;;;;;;;11.76;100.00;99662.59;5068870;28;20051;-50
2023/03/24 00:06:04;;;;;;;15.95;5.57;;;;;;;11.82;100.00;99662.66;5073551;28;20058;-53
2023/03/24 00:08:34;;;;;;;14.80;5.40;;;;;;;11.85;100.00;99662.28;5067380;28;20040;-50
2023/03/24 00:11:06;;;;;;;20.02;6.22;;;;;;;11.87;100.00;99657.59;5074151;28;20448;-53
2023/03/24 00:13:37;;;;;;;16.23;5.35;;;;;;;11.93;100.00;99647.25;5069899;28;20036;-50
2023/03/24 00:16:08;;;;;;;11.82;4.70;;;;;;;11.85;100.00;99645.53;5073714;28;20055;-53
2023/03/24 00:18:35;;;;;;;12.63;4.40;;;;;;;11.76;100.00;99636.03;5068977;28;20109;-53
2023/03/24 00:21:04;;;;;;;12.70;5.22;;;;;;;11.77;100.00;99633.19;5073627;28;20041;-51
2023/03/24 00:23:32;;;;;;;14.43;4.60;;;;;;;11.74;100.00;99625.59;5066280;28;20053;-50
2023/03/24 00:26:05;;;;;;;13.10;4.43;;;;;;;11.68;100.00;99615.72;5073657;28;20051;-53
2023/03/24 00:28:35;;;;;;;11.93;4.47;;;;;;;11.81;100.00;99613.19;5069547;28;20504;-53
2023/03/24 00:31:05;;;;;;;13.20;4.45;;;;;;;11.77;100.00;99608.44;5074125;28;20066;-51
2023/03/24 00:33:33;;;;;;;11.52;4.00;;;;;;;11.84;100.00;99601.34;5069261;28;20575;-52
2023/03/24 00:36:04;;;;;;;8.77;3.72;;;;;;;11.79;100.00;99601.94;5073306;28;20052;-52
2023/03/24 00:38:33;;;;;;;9.30;3.80;;;;;;;11.85;100.00;99603.81;5069195;28;20036;-52
2023/03/24 00:41:01;;;;;;;10.60;3.40;;;;;;;11.75;100.00;99600.69;5070224;28;20101;-50
2023/03/24 00:43:28;;;;;;;10.35;3.53;;;;;;;11.85;100.00;99590.53;5073562;28;20409;-51
2023/03/24 00:46:01;;;;;;;9.38;3.55;;;;;;;11.79;100.00;99582.50;5068932;28;20048;-52
2023/03/24 00:48:29;;;;;;;10.07;3.80;;;;;;;11.74;100.00;99575.13;5073601;28;20041;-54
2023/03/24 00:50:56;;;;;;;11.13;3.53;;;;;;;11.69;100.00;99578.31;5069138;28;20044;-53
2023/03/24 00:53:28;;;;;;;8.85;3.75;;;;;;;11.79;100.00;99583.34;5073380;28;20102;-52
2023/03/24 00:55:56;;;;;;;10.15;3.58;;;;;;;11.78;100.00;99572.91;5068691;28;20044;-53
2023/03/24 00:58:24;;;;;;;8.63;3.70;;;;;;;11.73;100.00;99578.78;5070095;28;20044;-51
2023/03/24 01:00:55;;;;;;;8.95;3.40;;;;;;;11.72;100.00;99563.84;5072868;28;20048;-53
2023/03/24 01:03:26;;;;;;;11.50;3.67;;;;;;;11.74;100.00;99561.81;5060612;28;20057;-50
2023/03/24 01:05:56;;;;;;;12.70;3.90;;;;;;;11.77;100.00;99561.47;5052661;28;20045;-51
2023/03/24 01:08:24;;;;;;;9.88;3.50;;;;;;;11.75;100.00;99560.81;5057506;28;20045;-51
2023/03/24 01:10:52;;;;;;;11.43;4.03;;;;;;;11.78;100.00;99568.41;5073285;28;20048;-50
2023/03/24 01:13:22;;;;;;;11.65;3.72;;;;;;;11.74;100.00;99568.97;5068697;28;20044;-52
2023/03/24 01:15:49;;;;;;;9.82;3.97;;;;;;;11.74;100.00;99574.31;5069107;28;20454;-51
2023/03/24 01:18:17;;;;;;;12.18;3.80;;;;;;;11.71;100.00;99568.34;5073114;28;20052;-50
2023/03/24 01:20:47;;;;;;;9.52;3.85;;;;;;;11.71;100.00;99564.84;5068485;28;20053;-50
2023/03/24 01:23:18;;;;;;;12.98;4.05;;;;;;;11.67;100.00;99553.78;5088990;28;20516;-52
2023/03/24 01:25:47;;;;;;;10.57;4.40;;;;;;;11.70;100.00;99556.06;5068251;28;20132;-50
2023/03/24 01:28:16;;;;;;;11.32;4.40;;;;;;;11.71;100.00;99556.88;5073437;28;20081;-50
2023/03/24 01:30:44;;;;;;;12.05;4.18;;;;;;;11.69;100.00;99540.31;5068332;28;20132;-51
2023/03/24 01:33:11;;;;;;;10.65;4.55;;;;;;;11.71;100.00;99530.31;5069789;28;20155;-48
2023/03/24 01:35:38;;;;;;;12.98;4.97;;;;;;;11.76;100.00;99527.09;5072639;28;20132;-51
2023/03/24 01:38:07;;;;;;;12.63;4.70;;;;;;;11.73;100.00;99528.28;5068641;28;20227;-50
2023/03/24 01:40:37;;;;;;;9.93;4.18;;;;;;;11.80;100.00;99510.56;5092424;28;20405;-52
2023/03/24 01:43:07;;;;;;;15.75;4.38;;;;;;;11.78;100.00;99504.63;5087535;28;20101;-49
2023/03/24 01:45:54;;;;;;;12.63;5.20;;;;;;;11.81;100.00;99504.25;5092569;28;20120;-52
2023/03/24 01:48:32;;;;;;;12.55;5.90;;;;;;;11.77;100.00;99500.34;5085270;28;20040;-52
2023/03/24 01:51:04;;;;;;;15.63;5.57;;;;;;;11.79;100.00;99487.69;5091810;28;20048;-49
2023/03/24 01:53:35;;;;;;;13.85;5.93;;;;;;;11.80;100.00;99493.81;5088831;28;20490;-51
2023/03/24 01:56:05;;;;;;;11.85;5.13;;;;;;;11.81;100.00;99472.38;5093050;28;20051;-48
2023/03/24 01:58:40;;;;;;;14.45;5.20;;;;;;;11.92;100.00;99472.91;5087905;28;20157;-51
2023/03/24 02:01:17;;;;;;;11.50;5.18;;;;;;;11.92;100.00;99468.41;5092550;28;20071;-49
2023/03/24 02:04:06;;;;;;;13.43;5.07;;;;;;;11.89;100.00;99466.91;5073951;28;20051;-51
2023/03/24 02:06:39;;;;;;;15.05;5.70;;;;;;;11.94;100.00;99452.25;5067814;28;20048;-49
2023/03/24 02:09:08;;;;;;;10.98;4.80;;;;;;;11.97;100.00;99443.88;5072683;28;20155;-49
2023/03/24 02:11:36;;;;;;;10.77;4.47;;;;;;;11.89;100.00;99450.16;5068248;28;20452;-49
2023/03/24 02:14:06;;;;;;;10.63;4.80;;;;;;;11.90;100.00;99430.56;5072624;28;20060;-51
2023/03/24 02:16:48;;;;;;;10.00;4.88;;;;;;;11.89;100.00;99416.41;5083152;28;20114;-51
2023/03/24 02:19:45;;;;;;;12.23;4.78;;;;;;;11.98;100.00;99433.06;5072313;28;20405;-50
2023/03/24 02:22:47;;;;;;;11.82;5.22;;;;;;;11.92;100.00;99428.53;5064738;28;20037;-50
2023/03/24 02:25:37;;;;;;;12.55;4.93;;;;;;;11.93;100.00;99416.06;5072278;28;20048;-51
2023/03/24 02:31:38;;;;;;;10.45;5.10;;;;;;;12.05;100.00;99423.28;5111327;27;20742;-49
2023/03/24 02:34:44;;;;;;;13.07;4.88;;;;;;;12.09;100.00;99403.28;5110938;28;20047;-51
2023/03/24 02:37:52;;;;;;;11.50;5.18;;;;;;;12.14;100.00;99418.66;5105689;28;20036;-52
2023/03/24 02:40:42;;;;;;;13.57;5.40;;;;;;;12.16;100.00;99405.97;5087075;28;20040;-52
2023/03/24 02:43:42;;;;;;;14.50;6.25;;;;;;;12.32;100.00;99418.13;5088093;28;20240;-52
2023/03/24 02:49:27;;;;;;;14.60;5.63;;;;;;;12.59;97.79;99418.25;5106771;27;20380;-51
2023/03/24 02:52:18;;;;;;;15.05;5.88;;;;;;;12.65;97.93;99415.59;5110778;28;20050;-51
2023/03/24 02:54:57;;;;;;;13.98;5.43;;;;;;;12.54;98.86;99416.16;5106249;28;20131;-48
2023/03/24 02:57:46;;;;;;;11.35;5.40;;;;;;;12.60;97.80;99412.69;5107984;28;20047;-51
2023/03/24 03:00:40;;;;;;;9.95;4.50;;;;;;;12.55;98.23;99409.84;5105875;28;20055;-50
2023/03/24 03:03:37;;;;;;;12.18;4.60;;;;;;;12.49;98.68;99402.63;5110256;28;20382;-50
2023/03/24 03:06:26;;;;;;;11.27;5.13;;;;;;;12.63;96.47;99412.31;5105747;28;20036;-48
2023/03/24 03:08:56;;;;;;;9.95;4.25;;;;;;;12.69;96.71;99405.38;5110466;28;20040;-49
2023/03/24 03:11:23;;;;;;;10.52;4.60;;;;;;;12.68;97.17;99403.75;5106275;28;20058;-51
2023/03/24 03:13:58;;;;;;;11.00;5.05;;;;;;;12.81;95.40;99413.59;5107501;28;20097;-49
2023/03/24 03:16:47;;;;;;;10.13;4.15;;;;;;;12.93;94.00;99411.16;5110461;28;20048;-51
2023/03/24 03:19:27;;;;;;;9.57;4.13;;;;;;;13.02;93.28;99402.78;5105865;28;20054;-50
2023/03/24 03:21:55;;;;;;;9.90;4.05;;;;;;;13.11;92.40;99411.38;5110383;28;20047;-51
2023/03/24 03:24:29;;;;;;;12.27;4.18;;;;;;;13.17;91.61;99401.75;5105883;28;20055;-50
2023/03/24 03:27:04;;;;;;;12.07;4.03;;;;;;;13.28;91.11;99395.84;5109917;28;20044;-51
2023/03/24 03:29:37;;;;;;;10.35;3.97;;;;;;;13.35;90.38;99394.03;5103011;28;20039;-49
2023/03/24 03:32:08;;;;;;;9.10;3.90;;;;;;;13.46;89.50;99389.91;5110182;28;20044;-49
2023/03/24 03:34:51;;;;;;;11.70;3.97;;;;;;;13.44;89.94;99399.97;5105992;28;20155;-53
2023/03/24 03:40:08;;;;;;;9.85;3.67;;;;;;;13.52;89.15;99394.44;5105701;27;20411;-49
2023/03/24 03:42:39;;;;;;;9.45;4.13;;;;;;;13.46;88.97;99394.44;5111243;28;20052;-50
2023/03/24 03:45:09;;;;;;;9.95;3.90;;;;;;;13.51;89.02;99386.66;5103288;28;20093;-50
2023/03/24 03:47:36;;;;;;;10.32;4.07;;;;;;;13.48;89.09;99393.22;5110499;28;20093;-50
2023/03/24 03:50:07;;;;;;;10.52;3.60;;;;;;;13.51;88.81;99392.78;5110835;28;20571;-51
2023/03/24 03:52:37;;;;;;;9.13;3.95;;;;;;;13.43;89.28;99390.34;5106272;28;20052;-51
2023/03/24 03:55:08;;;;;;;15.75;4.05;;;;;;;13.48;89.60;99392.38;5110799;28;20040;-49
2023/03/24 03:57:36;;;;;;;9.05;3.90;;;;;;;13.41;89.43;99408.38;5105687;28;20044;-50
2023/03/24 04:00:15;;;;;;;10.93;3.88;;;;;;;13.50;89.86;99400.97;5110726;28;20047;-51
2023/03/24 04:03:35;;;;;;;8.27;3.90;;;;;;;13.47;90.45;99417.41;5106532;28;20040;-52
2023/03/24 04:06:20;;;;;;;12.02;4.32;;;;;;;13.42;90.87;99412.66;5109919;28;20382;-51
2023/03/24 04:08:50;;;;;;;8.30;3.30;;;;;;;13.36;91.37;99413.50;5107755;28;20032;-51
2023/03/24 04:11:45;;;;;;;9.10;3.97;;;;;;;13.24;91.95;99429.22;5108308;28;20084;-51
2023/03/24 04:14:48;;;;;;;8.85;3.60;;;;;;;13.27;90.92;99428.81;5109122;28;20111;-51
2023/03/24 04:20:33;;;;;;;9.75;3.88;;;;;;;13.13;93.76;99443.13;5107398;27;20567;-52
2023/03/24 04:23:17;;;;;;;13.50;4.93;;;;;;;13.00;97.49;99455.38;5111024;28;20040;-52
2023/03/24 04:25:57;;;;;;;9.25;4.25;;;;;;;12.86;97.97;99451.06;5107527;28;20055;-51
2023/03/24 04:29:00;;;;;;;11.98;4.60;;;;;;;12.77;99.44;99460.22;5107969;28;20048;-52
2023/03/24 04:31:33;;;;;;;12.38;4.32;;;;;;;12.73;100.00;99473.13;5110673;28;20558;-53
2023/03/24 04:34:09;;;;;;;8.73;4.25;;;;;;;12.51;100.00;99476.91;5106558;28;20052;-53
2023/03/24 04:36:44;;;;;;;12.82;4.22;;;;;;;12.49;100.00;99475.25;5107191;28;20508;-50
2023/03/24 04:39:37;;;;;;;11.73;4.68;;;;;;;12.43;100.00;99480.56;5110154;28;20039;-52
2023/03/24 04:42:16;;;;;;;10.07;4.18;;;;;;;12.40;100.00;99480.97;5106421;28;20067;-51
2023/03/24 04:44:45;;;;;;;10.02;3.42;;;;;;;12.40;99.10;99488.94;5110746;28;20044;-52
2023/03/24 04:47:37;;;;;;;10.40;3.78;;;;;;;12.28;98.67;99510.75;5105811;28;20044;-51
2023/03/24 04:50:30;;;;;;;8.65;3.20;;;;;;;12.24;98.09;99508.66;5109676;28;20491;-51
2023/03/24 04:52:59;;;;;;;13.90;3.63;;;;;;;12.24;97.60;99516.66;5107214;28;20097;-49
2023/03/24 04:58:25;;;;;;;8.77;3.03;;;;;;;12.16;96.74;99520.28;5106465;27;20412;-48
2023/03/24 05:00:54;;;;;;;11.30;2.95;;;;;;;12.27;96.56;99524.25;5110502;28;20118;-49
2023/03/24 05:03:21;;;;;;;12.48;3.30;;;;;;;12.17;97.32;99531.72;5106274;28;20134;-49
2023/03/24 05:05:51;;;;;;;6.32;2.47;;;;;;;12.14;97.15;99534.81;5110473;28;20047;-51
2023/03/24 05:08:19;;;;;;;8.63;3.22;;;;;;;12.16;97.97;99532.75;5102980;28;20040;-50
2023/03/24 05:10:47;;;;;;;8.10;3.10;;;;;;;12.06;96.86;99549.88;5110717;28;20123;-51
2023/03/24 05:13:14;;;;;;;9.88;3.15;;;;;;;12.08;95.79;99565.63;5106491;28;20097;-50
2023/03/24 05:15:47;;;;;;;7.78;2.60;;;;;;;12.06;93.85;99576.47;5110839;28;20048;-50
2023/03/24 05:18:24;;;;;;;7.63;2.83;;;;;;;11.99;93.89;99578.25;5106201;28;20054;-51
2023/03/24 05:20:52;;;;;;;8.68;2.80;;;;;;;11.97;94.00;99579.41;5110744;28;20162;-50
2023/03/24 05:23:20;;;;;;;8.02;2.72;;;;;;;11.95;92.86;99600.91;5102742;28;20186;-48
2023/03/24 05:25:48;;;;;;;10.27;2.45;;;;;;;11.85;92.64;99595.03;5110494;28;20552;-53
2023/03/24 05:28:15;;;;;;;9.70;2.60;;;;;;;11.81;91.85;99588.47;5109991;28;20078;-49
2023/03/24 05:30:42;;;;;;;7.15;2.50;;;;;;;11.69;91.46;99604.88;5107482;28;20043;-50
2023/03/24 05:33:29;;;;;;;6.68;2.30;;;;;;;11.55;93.18;99612.91;5106067;28;20471;-51
2023/03/24 05:35:57;;;;;;;6.55;2.30;;;;;;;11.56;91.33;99626.00;5108484;28;20059;-50
2023/03/24 05:38:24;;;;;;;11.70;2.70;;;;;;;11.38;91.52;99621.09;5107077;28;20036;-52
2023/03/24 05:40:57;;;;;;;11.68;2.40;;;;;;;11.38;89.90;99634.38;5104935;28;20051;-52
2023/03/24 05:43:29;;;;;;;6.45;2.00;;;;;;;11.23;88.56;99644.22;5109155;28;20048;-53
2023/03/24 05:46:06;;;;;;;10.13;1.95;;;;;;;11.21;85.32;99651.53;5105000;28;20131;-53
2023/03/24 05:48:34;;;;;;;7.80;2.05;;;;;;;11.08;85.92;99660.97;5110233;28;20097;-51
2023/03/24 05:51:11;;;;;;;9.02;2.20;;;;;;;11.12;85.69;99664.09;5105278;28;20050;-51
2023/03/24 05:53:38;;;;;;;6.45;1.70;;;;;;;11.01;85.48;99664.56;5110188;28;20505;-50
2023/03/24 05:56:17;;;;;;;8.93;1.90;;;;;;;10.85;86.83;99684.94;5101351;28;20151;-52
2023/03/24 05:59:01;;;;;;;9.82;1.90;;;;;;;10.89;86.79;99686.22;5109906;28;20485;-50
2023/03/24 06:01:47;;;;;;;11.07;2.30;;;;;;;10.79;85.50;99687.47;5104585;28;20058;-51
2023/03/24 06:04:21;;;;;;;9.68;2.00;;;;;;;10.66;86.04;99704.00;5109842;28;20431;-51
2023/03/24 06:06:49;;;;;;;11.07;2.20;;;;;;;10.62;85.53;99708.84;5104928;28;20043;-51
2023/03/24 06:09:20;;;;;;;9.55;1.92;;;;;;;10.59;85.34;99713.69;5098578;28;20047;-50
2023/03/24 06:11:48;;;;;;;8.45;1.98;;;;;;;10.71;84.79;99713.09;5091706;28;20493;-51
2023/03/24 06:14:15;;;;;;;10.40;2.25;;;;;;;10.57;84.62;99706.75;5092698;28;20044;-50
2023/03/24 06:16:58;;;;;;;12.30;1.90;;;;;;;10.62;84.66;99721.28;5095037;28;20444;-48
2023/03/24 06:19:26;;;;;;;14.07;2.13;;;;;;;10.46;85.10;99735.50;5089917;28;20489;-51
2023/03/24 06:22:06;;;;;;;12.38;2.13;;;;;;;10.52;85.07;99740.94;5095472;28;20404;-51
2023/03/24 06:24:38;;;;;;;13.25;2.42;;;;;;;10.49;84.98;99735.97;5091494;28;20543;-49
2023/03/24 06:27:08;;;;;;;13.10;2.00;;;;;;;10.55;84.57;99731.78;5095794;28;20051;-49
2023/03/24 06:29:35;;;;;;;15.48;2.40;;;;;;;10.48;84.34;99734.34;5087715;28;20048;-51
2023/03/24 06:32:04;;;;;;;14.52;2.38;;;;;;;10.47;84.40;99740.63;5095680;28;20398;-48
2023/03/24 06:34:37;;;;;;;13.10;2.97;;;;;;;10.42;85.61;99742.16;5090869;28;20395;-51
2023/03/24 06:37:15;;;;;;;13.88;2.40;;;;;;;10.39;84.54;99746.00;5095210;28;20107;-50
2023/03/24 06:39:42;;;;;;;9.93;2.10;;;;;;;10.43;84.91;99744.66;5090727;28;20381;-49
2023/03/24 06:42:11;;;;;;;16.83;2.72;;;;;;;10.46;84.68;99746.94;5095474;28;20131;-51
2023/03/24 06:44:38;;;;;;;14.95;2.45;;;;;;;10.55;85.46;99747.69;5089600;28;20429;-50
2023/03/24 06:47:05;;;;;;;15.40;2.50;;;;;;;10.45;85.08;99753.25;5091516;28;20078;-49
2023/03/24 06:49:33;;;;;;;13.00;2.13;;;;;;;10.33;84.60;99752.84;5094966;28;20047;-49
2023/03/24 06:52:00;;;;;;;13.23;2.90;;;;;;;10.43;83.91;99751.78;5089024;28;20113;-53
2023/03/24 06:54:29;;;;;;;14.82;2.38;;;;;;;10.30;84.59;99753.16;5094753;28;20076;-52
2023/03/24 06:56:58;;;;;;;15.75;2.30;;;;;;;10.34;84.80;99754.47;5089701;28;20184;-50
2023/03/24 06:59:32;;;;;;;18.92;2.35;;;;;;;10.22;85.66;99755.84;5095029;28;20056;-49
2023/03/24 07:02:00;;;;;;;10.27;2.15;;;;;;;10.28;86.28;99759.66;5088078;28;20138;-50
2023/03/24 07:04:35;;;;;;;10.55;2.20;;;;;;;10.30;86.46;99773.56;5075694;28;20127;-52
2023/03/24 07:07:11;;;;;;;14.30;2.13;;;;;;;10.32;86.73;99777.69;5080189;28;20040;-50
2023/03/24 07:10:13;;;;;;;12.88;2.45;;;;;;;10.30;86.96;99761.13;5074270;28;20044;-50
2023/03/24 07:12:41;;;;;;;11.57;2.33;;;;;;;10.36;87.53;99768.38;5070158;28;20553;-51
2023/03/24 07:15:08;;;;;;;13.40;2.03;;;;;;;10.34;87.48;99769.56;5074354;28;20052;-52
2023/03/24 07:17:35;;;;;;;13.45;2.30;;;;;;;10.32;88.10;99779.53;5069877;28;20234;-53
2023/03/24 07:20:11;;;;;;;16.17;2.38;;;;;;;10.43;88.13;99776.47;5070067;28;20517;-50
2023/03/24 07:22:49;;;;;;;12.07;2.30;;;;;;;10.35;88.57;99764.09;5074400;28;20032;-53
2023/03/24 07:25:36;;;;;;;10.23;2.10;;;;;;;10.30;88.33;99763.75;5068623;28;20048;-53
2023/03/24 07:28:12;;;;;;;15.50;2.28;;;;;;;10.24;90.08;99771.59;5074402;28;20044;-51
2023/03/24 07:30:39;;;;;;;15.20;2.30;;;;;;;10.27;89.56;99779.19;5069562;28;20482;-53
2023/03/24 07:33:10;;;;;;;14.27;2.83;;;;;;;10.41;88.55;99773.16;5076772;28;20285;-49
2023/03/24 07:35:39;;;;;;;13.23;2.67;;;;;;;10.44;87.72;99767.53;5086575;28;20078;-49
2023/03/24 07:38:06;;;;;;;15.40;3.08;;;;;;;10.51;87.92;99770.28;5094282;28;20790;-49
2023/03/24 07:40:34;;;;;;;21.83;4.65;;;;;;;10.73;87.59;99769.44;5035490;28;20052;-48
2023/03/24 07:43:04;;;;;;;21.13;9.02;;;;;;;10.90;88.34;99779.91;5089458;28;20063;-48
2023/03/24 07:45:40;;;;;;;16.50;4.13;;;;;;;10.84;84.86;99776.16;5071301;28;20087;-47
2023/03/24 07:48:06;;;;;;;18.27;4.22;;;;;;;11.12;83.69;99776.38;5077760;28;20046;-49
2023/03/24 07:50:35;;;;;;;24.90;3.97;;;;;;;11.30;82.77;99778.69;5081838;28;20143;-50
2023/03/24 07:53:10;;;;;;;14.57;3.00;;;;;;;11.06;82.53;99794.84;5064416;28;20044;-47
2023/03/24 07:55:37;;;;;;;20.95;4.15;;;;;;;11.11;83.16;99800.44;5072843;28;20040;-48
2023/03/24 07:58:12;;;;;;;20.83;3.60;;;;;;;11.30;81.57;99804.44;5090613;28;20044;-48
2023/03/24 08:00:47;;;;;;;19.45;4.00;;;;;;;11.27;80.61;99813.56;5101096;28;20131;-47
2023/03/24 08:03:26;;;;;;;16.42;3.45;;;;;;;11.32;79.89;99821.00;5084252;28;20041;-47
2023/03/24 08:06:13;;;;;;;20.00;4.35;;;;;;;11.45;81.12;99825.69;5071816;28;20292;-56
2023/03/24 08:08:49;;;;;;;17.00;3.95;;;;;;;11.38;79.60;99824.75;5088906;28;20113;-57
2023/03/24 08:11:17;;;;;;;17.95;3.90;;;;;;;11.48;80.13;99827.97;5091517;28;20052;-57
2023/03/24 08:13:43;;;;;;;18.50;3.85;;;;;;;11.59;79.32;99827.50;5080530;28;20474;-47
2023/03/24 08:16:10;;;;;;;21.30;4.38;;;;;;;11.67;79.82;99824.75;5079092;28;20040;-47
2023/03/24 08:18:37;;;;;;;22.25;5.75;;;;;;;11.87;79.33;99829.50;5089685;28;20478;-49
2023/03/24 08:21:04;;;;;;;41.20;15.70;;;;;;;12.05;79.34;99826.50;5087820;28;20134;-50
2023/03/24 08:23:31;;;;;;;27.27;6.18;;;;;;;12.24;76.60;99817.09;5075108;28;20041;-48
2023/03/24 08:25:58;;;;;;;20.20;3.72;;;;;;;12.06;77.26;99817.50;5063733;28;20056;-48
2023/03/24 08:28:24;;;;;;;19.73;4.07;;;;;;;11.96;76.85;99817.81;5071731;28;20083;-48
2023/03/24 08:30:51;;;;;;;18.33;3.88;;;;;;;11.83;78.37;99822.94;5071365;28;20123;-50
2023/03/24 08:33:19;;;;;;;20.58;4.00;;;;;;;11.74;77.45;99814.22;5085419;28;20460;-48
2023/03/24 08:35:46;;;;;;;19.65;5.63;;;;;;;11.55;78.21;99823.59;5088277;28;20157;-48
2023/03/24 08:38:15;;;;;;;16.23;3.50;;;;;;;11.64;77.95;99827.81;5089632;28;20093;-49
2023/03/24 08:40:47;;;;;;;19.08;4.03;;;;;;;11.75;77.49;99820.34;5084398;28;20149;-48
2023/03/24 08:43:14;;;;;;;19.13;3.15;;;;;;;11.81;78.38;99819.63;5080214;28;20052;-49
2023/03/24 08:45:42;;;;;;;18.17;3.45;;;;;;;11.90;77.60;99813.25;5086891;28;20512;-49
2023/03/24 08:48:09;;;;;;;22.08;5.45;;;;;;;12.02;77.04;99835.66;5091874;28;20398;-49
2023/03/24 08:50:39;;;;;;;16.20;3.08;;;;;;;11.96;77.99;99827.63;5082549;28;20102;-48
2023/03/24 08:53:07;;;;;;;20.92;3.38;;;;;;;11.99;76.06;99832.53;5088256;28;20048;-47
2023/03/24 08:55:36;;;;;;;13.10;2.47;;;;;;;11.94;76.00;99827.81;5084801;28;20493;-47
2023/03/24 08:58:03;;;;;;;21.50;3.47;;;;;;;12.05;75.37;99835.28;5109441;28;20424;-52
2023/03/24 09:00:32;;;;;;;18.75;3.10;;;;;;;12.03;75.45;99841.81;5085072;28;20036;-52
2023/03/24 09:03:00;;;;;;;20.52;2.53;;;;;;;11.97;76.01;99840.72;5060200;28;20039;-52
2023/03/24 09:05:27;;;;;;;20.95;3.70;;;;;;;12.57;75.03;99846.75;5048114;28;20095;-52
2023/03/24 09:08:00;;;;;;;12.43;2.38;;;;;;;12.38;72.02;99848.16;5044070;28;20045;-52
2023/03/24 09:10:27;;;;;;;19.58;3.88;;;;;;;12.29;73.38;99839.47;5083341;28;20051;-48
2023/03/24 09:12:54;;;;;;;22.13;3.15;;;;;;;12.24;73.86;99844.53;5045853;28;20070;-49
2023/03/24 09:15:20;;;;;;;19.98;3.53;;;;;;;12.17;72.89;99840.13;5016333;28;20053;-49
2023/03/24 09:17:47;;;;;;;19.17;3.65;;;;;;;12.36;72.77;99834.22;5020287;28;20073;-50
2023/03/24 09:20:15;;;;;;;21.98;2.92;;;;;;;12.40;72.53;99846.13;5018206;28;20123;-50
2023/03/24 09:22:45;;;;;;;20.48;3.45;;;;;;;13.20;71.08;99849.53;5025858;28;20058;-53
2023/03/24 09:25:18;;;;;;;17.05;3.22;;;;;;;13.77;68.69;99849.53;5013667;28;20037;-53
2023/03/24 09:27:45;;;;;;;18.30;3.30;;;;;;;14.32;64.87;99860.28;5015794;28;20112;-51
2023/03/24 09:30:14;;;;;;;20.92;3.20;;;;;;;14.50;63.74;99863.22;5002022;28;20049;-53
2023/03/24 09:32:41;;;;;;;20.92;4.07;;;;;;;13.29;67.64;99873.38;5012852;28;20053;-52
2023/03/24 09:35:09;;;;;;;19.95;3.78;;;;;;;14.41;64.47;99864.41;5010234;28;20048;-51
2023/03/24 09:37:37;;;;;;;17.65;4.15;;;;;;;13.19;66.54;99871.06;5013011;28;20137;-53
2023/03/24 09:40:06;;;;;;;19.02;3.47;;;;;;;12.74;69.33;99862.47;5010147;28;20451;-50
2023/03/24 09:42:39;;;;;;;22.63;3.72;;;;;;;12.34;69.75;99885.97;5007543;28;20064;-50
2023/03/24 09:45:15;;;;;;;22.70;4.07;;;;;;;12.22;71.43;99867.00;5012549;28;20463;-51
2023/03/24 09:47:48;;;;;;;20.05;4.10;;;;;;;13.32;66.88;99867.72;5016374;28;20092;-51
2023/03/24 09:50:26;;;;;;;21.60;4.30;;;;;;;13.39;66.62;99876.59;5018614;28;20054;-49
2023/03/24 09:52:58;;;;;;;17.75;3.67;;;;;;;12.79;68.01;99868.03;5015615;28;20045;-50
2023/03/24 09:55:26;;;;;;;;;;;;;;;13.03;67.52;99888.13;5016475;28;20046;-50
2023/03/24 09:58:00;;;;;;;18.17;3.47;;;;;;;14.20;63.80;99884.84;5025533;28;19928;-51
2023/03/24 10:00:30;;;;;;;19.33;3.60;;;;;;;13.35;65.17;99889.47;5029310;28;20049;-51
2023/03/24 10:03:01;;;;;;;22.00;3.78;;;;;;;14.56;61.21;99890.94;5024147;28;20049;-51
2023/03/24 10:05:42;;;;;;;18.55;3.92;;;;;;;13.89;63.05;99897.81;5031924;28;20068;-49
2023/03/24 10:08:25;;;;;;;20.80;3.47;;;;;;;13.15;65.09;99894.59;5035281;28;20045;-50
2023/03/24 10:11:17;;;;;;;18.45;3.03;;;;;;;12.93;66.71;99904.41;5025236;28;20112;-50
2023/03/24 10:17:02;;;;;;;17.55;3.80;;;;;;;13.27;65.49;99908.19;5111010;27;20379;-51
2023/03/24 10:19:47;;;;;;;17.77;3.53;;;;;;;14.65;61.62;99923.63;5064943;28;20124;-54
2023/03/24 10:22:38;;;;;;;14.50;3.58;;;;;;;15.79;56.59;99922.75;5115098;27;20071;-48
2023/03/24 10:27:58;;;;;;;11.43;3.00;;;;;;;16.60;53.92;99924.13;5109653;27;20697;-49
2023/03/24 10:30:30;;;;;;;21.35;4.18;;;;;;;16.34;54.97;99917.03;5095445;28;20040;-50
2023/03/24 10:32:57;;;;;;;16.80;3.33;;;;;;;18.52;51.18;99917.34;5098737;28;20052;-50
2023/03/24 10:35:29;;;;;;;15.73;3.03;;;;;;;19.31;49.25;99913.75;5086546;27;20449;-47
2023/03/24 10:38:01;;;;;;;21.60;3.30;;;;;;;20.48;45.31;99933.59;5102673;28;20040;-48
2023/03/24 10:40:31;;;;;;;11.35;2.67;;;;;;;19.27;46.22;99921.47;5101454;28;20039;-48
2023/03/24 10:43:00;;;;;;;21.85;3.13;;;;;;;17.67;50.33;99934.13;5108058;28;20677;-50
2023/03/24 10:45:31;;;;;;;14.98;3.28;;;;;;;16.36;52.87;99933.69;5104431;28;20048;-49
2023/03/24 10:48:01;;;;;;;18.73;3.67;;;;;;;15.60;56.85;99923.56;5107837;28;20496;-51
2023/03/24 10:50:30;;;;;;;15.68;3.60;;;;;;;15.68;56.89;99923.31;5092485;28;20044;-49
2023/03/24 10:52:58;;;;;;;19.95;2.85;;;;;;;15.62;57.85;99921.47;5098198;28;20091;-52
2023/03/24 10:55:31;;;;;;;16.05;3.35;;;;;;;15.00;57.39;99921.66;5090822;28;20079;-53
2023/03/24 10:57:59;;;;;;;15.23;2.38;;;;;;;14.06;59.80;99922.31;5094690;28;20115;-52
2023/03/24 11:00:30;;;;;;;13.25;2.47;;;;;;;13.54;61.48;99913.78;5103085;28;20043;-53
2023/03/24 11:03:05;;;;;;;14.68;2.88;;;;;;;13.67;60.82;99902.41;5100170;27;20056;-53
2023/03/24 11:05:36;;;;;;;14.43;3.17;;;;;;;13.78;62.11;99901.84;5097238;28;20042;-53
2023/03/24 11:08:27;;;;;;;12.90;2.67;;;;;;;14.83;57.88;99920.41;5079763;28;20049;-51
2023/03/24 11:10:55;;;;;;;13.13;2.45;;;;;;;14.19;58.39;99904.53;5100541;28;20515;-52
2023/03/24 11:16:15;;;;;;;12.75;2.10;;;;;;;13.92;58.79;99929.44;5098997;27;20397;-52
2023/03/24 11:19:01;;;;;;;13.25;2.42;;;;;;;14.47;57.90;99911.63;5093542;28;20051;-54
2023/03/24 11:21:31;;;;;;;13.50;2.33;;;;;;;15.80;55.63;99913.66;5115143;27;20123;-53
2023/03/24 11:24:00;;;;;;;20.83;2.70;;;;;;;16.21;52.63;99925.09;5101968;28;20040;-51
2023/03/24 11:26:33;;;;;;;11.30;2.28;;;;;;;16.36;52.84;99936.38;5081992;28;20034;-54
2023/03/24 11:29:06;;;;;;;10.98;2.30;;;;;;;15.47;53.83;99935.06;5103979;28;20131;-52
2023/03/24 11:31:38;;;;;;;16.77;2.55;;;;;;;15.39;54.86;99924.56;5100092;28;20508;-51
2023/03/24 11:34:12;;;;;;;13.43;2.33;;;;;;;15.92;54.32;99940.63;5100694;28;20052;-53
2023/03/24 11:36:47;;;;;;;12.18;2.13;;;;;;;16.11;53.34;99931.69;5112075;28;20085;-51
2023/03/24 11:39:20;;;;;;;14.85;2.55;;;;;;;15.34;54.43;99923.34;5105265;27;20155;-51
2023/03/24 11:41:59;;;;;;;11.48;2.25;;;;;;;14.82;55.08;99926.75;5105167;28;20051;-53
2023/03/24 11:44:42;;;;;;;13.45;2.92;;;;;;;14.49;56.87;99928.25;5094227;28;20039;-52
2023/03/24 11:47:17;;;;;;;15.80;2.70;;;;;;;14.70;54.89;99955.91;5099513;28;20044;-52
2023/03/24 11:49:51;;;;;;;14.77;2.40;;;;;;;14.93;55.50;99913.63;5084432;28;20052;-53
2023/03/24 11:52:24;;;;;;;10.70;2.53;;;;;;;15.96;52.88;99919.63;5107792;28;20039;-51
2023/03/24 11:54:52;;;;;;;17.50;2.47;;;;;;;15.65;53.31;99918.41;5093719;28;20094;-53
2023/03/24 11:57:39;;;;;;;14.88;2.47;;;;;;;15.19;52.39;99917.38;5085341;28;20040;-53
2023/03/24 12:00:18;;;;;;;16.40;2.70;;;;;;;15.83;50.28;99920.47;5088508;28;20048;-53
2023/03/24 12:03:18;;;;;;;12.40;2.47;;;;;;;16.55;48.68;99928.47;5100161;28;20494;-50
2023/03/24 12:05:53;;;;;;;16.13;2.42;;;;;;;16.88;48.88;99909.56;5103181;28;20044;-53
2023/03/24 12:08:39;;;;;;;14.65;2.10;;;;;;;15.71;51.09;99930.94;5098820;28;20104;-53
2023/03/24 12:11:16;;;;;;;13.60;2.30;;;;;;;15.21;52.86;99903.78;5094645;28;20094;-53
2023/03/24 12:13:48;;;;;;;13.30;2.10;;;;;;;15.03;52.94;99909.75;5082153;28;20132;-48
2023/03/24 12:16:55;;;;;;;13.90;2.55;;;;;;;15.01;52.54;99903.78;5088723;28;20079;-52
2023/03/24 12:22:37;;;;;;;14.93;2.30;;;;;;;15.63;51.96;99917.78;5095540;27;20398;-49